createdAt,value
2022-12-18T00:00:08.733Z,9.30
2022-12-18T00:03:02.050Z,8.30
2022-12-18T00:05:30.534Z,7.90
2022-12-18T00:07:59.237Z,7.90
2022-12-18T00:10:28.960Z,7.10
2022-12-18T00:12:57.310Z,8.30
2022-12-18T00:15:25.385Z,9.20
2022-12-18T00:17:53.452Z,8.90
2022-12-18T00:20:26.568Z,8.30
2022-12-18T00:22:55.984Z,8.40
2022-12-18T00:25:24.769Z,8.20
2022-12-18T00:27:53.060Z,8.40
2022-12-18T00:30:21.164Z,8.50
2022-12-18T00:32:49.262Z,8.90
2022-12-18T00:35:17.469Z,8.90
2022-12-18T00:37:45.626Z,9.40
2022-12-18T00:40:13.863Z,9.00
2022-12-18T00:42:56.989Z,8.80
2022-12-18T00:45:31.904Z,9.10
2022-12-18T00:48:00.062Z,8.90
2022-12-18T00:50:28.219Z,8.70
2022-12-18T00:52:56.343Z,10.00
2022-12-18T00:55:24.515Z,9.70
2022-12-18T00:57:53.747Z,8.40
2022-12-18T01:00:22.431Z,9.40
2022-12-18T01:02:50.784Z,9.00
2022-12-18T01:05:19.706Z,8.90
2022-12-18T01:07:47.801Z,9.40
2022-12-18T01:10:16.183Z,9.20
2022-12-18T01:12:44.340Z,9.50
2022-12-18T01:15:14.455Z,8.20
2022-12-18T01:17:43.426Z,8.20
2022-12-18T01:20:13.265Z,9.30
2022-12-18T01:22:41.650Z,9.50
2022-12-18T01:25:09.925Z,9.70
2022-12-18T01:27:38.275Z,8.40
2022-12-18T01:30:08.232Z,8.90
2022-12-18T01:32:36.613Z,8.70
2022-12-18T01:35:07.071Z,8.60
2022-12-18T01:37:35.595Z,9.00
2022-12-18T01:40:04.398Z,9.60
2022-12-18T01:42:32.553Z,9.20
2022-12-18T01:45:12.191Z,9.30
2022-12-18T01:47:42.915Z,9.20
2022-12-18T01:50:20.179Z,10.20
2022-12-18T01:52:56.835Z,10.40
2022-12-18T01:55:30.120Z,9.40
2022-12-18T01:58:01.439Z,10.40
2022-12-18T02:00:30.975Z,9.70
2022-12-18T02:02:59.222Z,10.20
2022-12-18T02:05:56.665Z,10.30
2022-12-18T02:08:42.395Z,10.40
2022-12-18T02:11:34.716Z,9.20
2022-12-18T02:14:50.608Z,10.40
2022-12-18T02:17:40.287Z,9.20
2022-12-18T02:20:15.503Z,10.00
2022-12-18T02:23:55.557Z,10.40
2022-12-18T02:26:41.754Z,8.50
2022-12-18T02:29:17.826Z,9.20
2022-12-18T02:31:54.839Z,9.30
2022-12-18T02:34:30.015Z,8.20
2022-12-18T02:37:03.112Z,8.90
2022-12-18T02:39:34.249Z,9.10
2022-12-18T02:42:08.914Z,9.30
2022-12-18T02:44:52.106Z,9.20
2022-12-18T02:47:29.637Z,8.50
2022-12-18T02:50:28.397Z,8.50
2022-12-18T02:53:07.339Z,7.70
2022-12-18T02:55:54.220Z,8.30
2022-12-18T02:58:37.470Z,8.10
2022-12-18T03:01:53.402Z,8.70
2022-12-18T03:05:08.716Z,7.70
2022-12-18T03:07:51.999Z,7.20
2022-12-18T03:10:29.726Z,8.10
2022-12-18T03:13:07.658Z,8.00
2022-12-18T03:15:46.712Z,7.80
2022-12-18T03:18:23.272Z,7.20
2022-12-18T03:20:59.518Z,7.90
2022-12-18T03:23:35.700Z,7.60
2022-12-18T03:26:10.626Z,7.80
2022-12-18T03:28:52.470Z,7.40
2022-12-18T03:31:24.307Z,6.70
2022-12-18T03:33:59.971Z,7.40
2022-12-18T03:36:34.054Z,7.30
2022-12-18T03:39:03.767Z,7.90
2022-12-18T03:42:03.820Z,7.30
2022-12-18T03:44:53.079Z,6.90
2022-12-18T03:48:05.112Z,6.70
2022-12-18T03:50:39.720Z,6.60
2022-12-18T03:53:51.244Z,6.60
2022-12-18T03:56:23.864Z,6.30
2022-12-18T03:58:54.971Z,6.00
2022-12-18T04:01:35.899Z,6.40
2022-12-18T04:04:05.989Z,6.10
2022-12-18T04:06:38.098Z,6.40
2022-12-18T04:09:06.600Z,6.70
2022-12-18T04:11:37.621Z,6.30
2022-12-18T04:14:07.441Z,7.20
2022-12-18T04:16:36.925Z,7.40
2022-12-18T04:19:06.474Z,7.10
2022-12-18T04:21:39.663Z,7.30
2022-12-18T04:24:08.148Z,6.60
2022-12-18T04:26:36.644Z,7.90
2022-12-18T04:29:25.923Z,7.10
2022-12-18T04:31:54.048Z,7.60
2022-12-18T04:34:22.686Z,6.80
2022-12-18T04:36:52.348Z,8.10
2022-12-18T04:39:21.883Z,9.30
2022-12-18T04:41:50.933Z,10.00
2022-12-18T04:44:19.457Z,9.10
2022-12-18T04:46:47.569Z,9.90
2022-12-18T04:49:15.824Z,8.40
2022-12-18T04:51:43.895Z,9.00
2022-12-18T04:54:12.134Z,9.50
2022-12-18T04:56:40.809Z,8.80
2022-12-18T04:59:08.912Z,8.90
2022-12-18T05:01:37.199Z,8.90
2022-12-18T05:04:05.469Z,8.20
2022-12-18T05:06:33.822Z,7.60
2022-12-18T05:09:02.193Z,7.80
2022-12-18T05:11:31.267Z,8.30
2022-12-18T05:14:00.456Z,8.20
2022-12-18T05:16:28.683Z,8.30
2022-12-18T05:18:56.750Z,8.30
2022-12-18T05:21:25.076Z,8.90
2022-12-18T05:23:53.224Z,7.90
2022-12-18T05:26:21.318Z,8.30
2022-12-18T05:28:49.421Z,8.50
2022-12-18T05:31:17.653Z,8.50
2022-12-18T05:33:45.816Z,9.80
2022-12-18T05:36:14.109Z,9.30
2022-12-18T05:38:42.743Z,8.00
2022-12-18T05:41:11.320Z,8.80
2022-12-18T05:43:42.840Z,10.00
2022-12-18T05:46:18.714Z,8.90
2022-12-18T05:48:47.473Z,9.00
2022-12-18T05:51:18.658Z,8.80
2022-12-18T05:53:47.694Z,9.20
2022-12-18T05:56:23.454Z,10.80
2022-12-18T05:58:55.404Z,10.20
2022-12-18T06:01:27.450Z,12.80
2022-12-18T06:03:56.483Z,12.00
2022-12-18T06:06:27.864Z,11.60
2022-12-18T06:08:57.622Z,11.60
2022-12-18T06:11:27.635Z,11.90
2022-12-18T06:13:59.057Z,13.10
2022-12-18T06:16:29.488Z,13.60
2022-12-18T06:19:03.313Z,12.40
2022-12-18T06:21:33.181Z,13.50
2022-12-18T06:24:02.074Z,14.10
2022-12-18T06:26:30.228Z,12.70
2022-12-18T06:28:58.794Z,12.30
2022-12-18T06:31:27.359Z,13.10
2022-12-18T06:33:55.554Z,12.30
2022-12-18T06:36:23.812Z,11.80
2022-12-18T06:38:52.158Z,12.40
2022-12-18T06:41:22.897Z,12.10
2022-12-18T06:43:59.348Z,13.40
2022-12-18T06:46:39.000Z,13.20
2022-12-18T06:49:07.738Z,12.50
2022-12-18T06:51:35.969Z,12.50
2022-12-18T06:54:04.686Z,11.30
2022-12-18T06:56:32.842Z,11.00
2022-12-18T06:59:01.098Z,12.80
2022-12-18T07:01:29.438Z,13.30
2022-12-18T07:03:59.223Z,12.20
2022-12-18T07:06:27.855Z,11.80
2022-12-18T07:08:56.456Z,11.40
2022-12-18T07:11:25.289Z,10.40
2022-12-18T07:13:54.090Z,11.70
2022-12-18T07:16:25.513Z,11.30
2022-12-18T07:18:56.747Z,10.90
2022-12-18T07:21:26.726Z,11.10
2022-12-18T07:23:54.956Z,10.00
2022-12-18T07:26:24.124Z,10.20
2022-12-18T07:28:59.168Z,11.40
2022-12-18T07:31:28.852Z,13.00
2022-12-18T07:33:57.446Z,12.90
2022-12-18T07:36:26.411Z,12.40
2022-12-18T07:38:57.173Z,12.10
2022-12-18T07:41:25.361Z,11.90
2022-12-18T07:43:53.549Z,10.20
2022-12-18T07:46:22.385Z,10.00
2022-12-18T07:48:50.641Z,10.30
2022-12-18T07:51:22.922Z,11.40
2022-12-18T07:53:52.007Z,11.60
2022-12-18T07:56:27.645Z,10.20
2022-12-18T07:58:57.225Z,11.00
2022-12-18T08:01:30.192Z,10.90
2022-12-18T08:04:00.027Z,10.20
2022-12-18T08:06:29.576Z,10.40
2022-12-18T08:08:58.503Z,10.80
2022-12-18T08:11:29.768Z,12.60
2022-12-18T08:14:00.164Z,12.70
2022-12-18T08:16:29.367Z,12.10
2022-12-18T08:18:57.671Z,12.40
2022-12-18T08:21:29.776Z,12.00
2022-12-18T08:24:02.740Z,11.20
2022-12-18T08:26:32.586Z,11.70
2022-12-18T08:29:01.859Z,11.80
2022-12-18T08:31:32.069Z,10.90
2022-12-18T08:34:00.550Z,11.20
2022-12-18T08:36:28.843Z,10.80
2022-12-18T08:38:58.274Z,10.00
2022-12-18T08:41:27.781Z,10.00
2022-12-18T08:44:15.144Z,9.70
2022-12-18T08:46:45.159Z,8.60
2022-12-18T08:49:13.834Z,8.60
2022-12-18T08:51:42.089Z,8.70
2022-12-18T08:54:14.682Z,10.20
2022-12-18T08:56:43.016Z,8.80
2022-12-18T08:59:17.346Z,8.70
2022-12-18T09:01:48.366Z,7.80
2022-12-18T09:04:17.328Z,8.30
2022-12-18T09:06:45.794Z,8.80
2022-12-18T09:09:14.358Z,6.90
2022-12-18T09:11:42.601Z,7.00
2022-12-18T09:14:11.291Z,7.00
2022-12-18T09:16:39.481Z,6.90
2022-12-18T09:19:07.646Z,6.30
2022-12-18T09:21:37.145Z,7.00
2022-12-18T09:24:09.153Z,6.70
2022-12-18T09:26:38.554Z,6.00
2022-12-18T09:29:08.417Z,5.70
2022-12-18T09:31:37.809Z,7.80
2022-12-18T09:34:07.694Z,8.10
2022-12-18T09:36:36.121Z,13.80
2022-12-18T09:39:08.602Z,12.80
2022-12-18T09:41:51.109Z,13.40
2022-12-18T09:44:44.496Z,12.60
2022-12-18T09:47:21.084Z,12.60
2022-12-18T09:49:54.225Z,14.40
2022-12-18T09:52:45.242Z,12.10
2022-12-18T09:55:38.181Z,12.60
2022-12-18T09:58:27.981Z,13.30
2022-12-18T10:00:56.971Z,12.00
2022-12-18T10:03:25.784Z,12.20
2022-12-18T10:05:59.564Z,11.60
2022-12-18T10:09:02.964Z,12.60
2022-12-18T10:11:47.014Z,11.80
2022-12-18T10:15:21.883Z,11.60
2022-12-18T10:18:03.443Z,12.40
2022-12-18T10:20:44.929Z,12.10
2022-12-18T10:23:34.809Z,12.00
2022-12-18T10:26:10.451Z,11.00
2022-12-18T10:28:42.289Z,11.80
2022-12-18T10:31:21.380Z,11.80
2022-12-18T10:33:59.055Z,11.60
2022-12-18T10:36:27.857Z,11.30
2022-12-18T10:39:27.321Z,11.80
2022-12-18T10:42:19.296Z,10.30
2022-12-18T10:45:04.139Z,12.00
2022-12-18T10:47:35.836Z,10.50
2022-12-18T10:50:47.203Z,9.90
2022-12-18T10:53:29.887Z,10.20
2022-12-18T10:56:03.665Z,8.70
2022-12-18T10:58:39.187Z,9.50
2022-12-18T11:01:19.856Z,8.70
2022-12-18T11:04:08.353Z,10.50
2022-12-18T11:06:55.191Z,9.30
2022-12-18T11:09:30.254Z,8.90
2022-12-18T11:12:19.399Z,9.10
2022-12-18T11:14:51.762Z,8.90
2022-12-18T11:17:42.584Z,9.20
2022-12-18T11:20:42.126Z,8.10
2022-12-18T11:23:18.338Z,8.60
2022-12-18T11:26:07.528Z,8.20
2022-12-18T11:28:45.024Z,7.80
2022-12-18T11:31:26.960Z,7.10
2022-12-18T11:34:31.261Z,8.70
2022-12-18T11:37:04.184Z,8.40
2022-12-18T11:40:10.768Z,8.00
2022-12-18T11:42:50.028Z,7.80
2022-12-18T11:45:49.918Z,8.50
2022-12-18T11:48:31.458Z,8.10
2022-12-18T11:51:07.535Z,8.70
2022-12-18T11:54:04.050Z,8.00
2022-12-18T11:56:54.806Z,7.90
2022-12-18T11:59:55.925Z,7.70
2022-12-18T12:03:16.724Z,7.20
2022-12-18T12:05:59.915Z,7.20
2022-12-18T12:08:59.502Z,7.60
2022-12-18T12:11:50.951Z,7.60
2022-12-18T12:14:45.098Z,7.50
2022-12-18T12:17:42.356Z,7.50
2022-12-18T12:20:44.024Z,7.00
2022-12-18T12:23:51.115Z,7.40
2022-12-18T12:26:40.032Z,7.10
2022-12-18T12:29:11.207Z,7.10
2022-12-18T12:32:02.610Z,6.60
2022-12-18T12:35:07.735Z,6.30
2022-12-18T12:37:59.905Z,6.70
2022-12-18T12:43:46.119Z,6.80
2022-12-18T12:46:23.049Z,7.20
2022-12-18T12:49:03.587Z,7.00
2022-12-18T12:51:44.378Z,6.40
2022-12-18T12:54:23.166Z,7.30
2022-12-18T12:57:21.870Z,6.10
2022-12-18T13:00:07.535Z,5.90
2022-12-18T13:03:06.941Z,6.40
2022-12-18T13:05:40.001Z,6.60
2022-12-18T13:08:22.864Z,6.00
2022-12-18T13:11:14.780Z,6.70
2022-12-18T13:13:56.780Z,7.10
2022-12-18T13:16:28.658Z,6.40
2022-12-18T13:18:59.963Z,6.70
2022-12-18T13:21:32.017Z,6.10
2022-12-18T13:24:26.185Z,6.20
2022-12-18T13:26:55.341Z,6.10
2022-12-18T13:29:47.515Z,6.80
2022-12-18T13:32:26.701Z,5.80
2022-12-18T13:35:22.683Z,6.90
2022-12-18T13:40:48.571Z,6.20
2022-12-18T13:43:20.004Z,6.40
2022-12-18T13:46:02.856Z,5.60
2022-12-18T13:48:37.157Z,6.80
2022-12-18T13:51:12.193Z,6.60
2022-12-18T13:53:51.113Z,5.70
2022-12-18T13:56:27.215Z,5.60
2022-12-18T13:59:27.599Z,5.90
2022-12-18T14:02:14.594Z,5.80
2022-12-18T14:04:48.219Z,6.60
2022-12-18T14:07:21.003Z,6.20
2022-12-18T14:10:18.894Z,6.00
2022-12-18T14:13:03.135Z,5.80
2022-12-18T14:15:44.866Z,5.90
2022-12-18T14:18:29.885Z,5.70
2022-12-18T14:21:01.437Z,6.50
2022-12-18T14:23:40.120Z,6.20
2022-12-18T14:26:30.256Z,5.80
2022-12-18T14:29:18.392Z,5.60
2022-12-18T14:31:47.834Z,6.80
2022-12-18T14:34:18.592Z,6.40
2022-12-18T14:36:56.331Z,6.70
2022-12-18T14:39:26.489Z,6.10
2022-12-18T14:41:55.628Z,5.90
2022-12-18T14:44:24.351Z,5.70
2022-12-18T14:46:52.710Z,5.40
2022-12-18T14:49:33.482Z,5.50
2022-12-18T14:52:27.357Z,6.60
2022-12-18T14:54:55.838Z,6.40
2022-12-18T14:57:38.822Z,7.00
2022-12-18T15:00:17.036Z,6.50
2022-12-18T15:02:49.465Z,6.40
2022-12-18T15:05:26.418Z,6.10
2022-12-18T15:07:58.910Z,6.60
2022-12-18T15:10:34.088Z,6.20
2022-12-18T15:13:03.644Z,6.70
2022-12-18T15:15:35.087Z,5.80
2022-12-18T15:18:07.980Z,6.30
2022-12-18T15:20:51.851Z,7.90
2022-12-18T15:23:23.866Z,8.20
2022-12-18T15:26:07.826Z,8.70
2022-12-18T15:28:54.030Z,8.60
2022-12-18T15:31:30.492Z,8.50
2022-12-18T15:34:00.130Z,9.30
2022-12-18T15:36:31.523Z,8.00
2022-12-18T15:39:04.731Z,8.50
2022-12-18T15:41:37.099Z,9.30
2022-12-18T15:44:26.558Z,9.20
2022-12-18T15:46:59.091Z,9.40
2022-12-18T15:49:27.299Z,10.70
2022-12-18T15:52:00.556Z,10.60
2022-12-18T15:54:47.655Z,9.70
2022-12-18T15:57:24.676Z,10.00
2022-12-18T15:59:57.427Z,9.40
2022-12-18T16:02:26.682Z,10.10
2022-12-18T16:04:55.244Z,10.00
2022-12-18T16:07:25.122Z,9.10
2022-12-18T16:09:54.306Z,10.20
2022-12-18T16:12:26.482Z,9.80
2022-12-18T16:14:54.793Z,9.30
2022-12-18T16:17:22.978Z,9.80
2022-12-18T16:19:51.121Z,9.90
2022-12-18T16:22:26.591Z,10.40
2022-12-18T16:24:56.504Z,9.10
2022-12-18T16:27:25.946Z,8.40
2022-12-18T16:29:54.106Z,9.50
2022-12-18T16:32:23.473Z,9.80
2022-12-18T16:34:51.948Z,9.90
2022-12-18T16:37:20.196Z,9.80
2022-12-18T16:39:48.576Z,10.90
2022-12-18T16:42:20.566Z,10.50
2022-12-18T16:44:50.288Z,9.50
2022-12-18T16:47:19.877Z,9.50
2022-12-18T16:49:51.679Z,9.40
2022-12-18T16:52:20.937Z,9.20
2022-12-18T16:54:49.525Z,9.10
2022-12-18T16:57:20.300Z,9.90
2022-12-18T16:59:50.051Z,9.80
2022-12-18T17:02:23.629Z,9.10
2022-12-18T17:04:57.258Z,10.30
2022-12-18T17:07:27.066Z,9.60
2022-12-18T17:09:55.947Z,9.60
2022-12-18T17:12:24.537Z,9.50
2022-12-18T17:14:52.691Z,8.90
2022-12-18T17:17:22.783Z,9.30
2022-12-18T17:19:52.710Z,8.70
2022-12-18T17:22:23.284Z,8.30
2022-12-18T17:24:51.654Z,8.90
2022-12-18T17:27:19.840Z,9.10
2022-12-18T17:29:49.031Z,9.60
2022-12-18T17:32:18.229Z,9.50
2022-12-18T17:34:46.800Z,8.20
2022-12-18T17:37:15.686Z,9.50
2022-12-18T17:39:44.293Z,9.10
2022-12-18T17:42:15.730Z,10.00
2022-12-18T17:44:45.035Z,9.30
2022-12-18T17:47:14.358Z,11.10
2022-12-18T17:49:42.719Z,10.90
2022-12-18T17:52:11.386Z,10.70
2022-12-18T17:54:42.199Z,10.90
2022-12-18T17:57:10.697Z,11.60
2022-12-18T17:59:39.009Z,10.80
2022-12-18T18:02:07.585Z,10.20
2022-12-18T18:04:36.574Z,11.10
2022-12-18T18:07:04.774Z,10.00
2022-12-18T18:09:33.223Z,10.60
2022-12-18T18:12:19.723Z,11.40
2022-12-18T18:14:48.239Z,10.80
2022-12-18T18:17:16.544Z,9.90
2022-12-18T18:19:49.610Z,10.90
2022-12-18T18:22:19.179Z,10.70
2022-12-18T18:24:48.502Z,11.10
2022-12-18T18:27:16.943Z,10.50
2022-12-18T18:29:45.622Z,10.80
2022-12-18T18:32:13.835Z,12.30
2022-12-18T18:34:42.324Z,12.00
2022-12-18T18:37:11.214Z,12.40
2022-12-18T18:39:39.696Z,11.70
2022-12-18T18:42:08.535Z,11.70
2022-12-18T18:44:37.049Z,13.10
2022-12-18T18:47:06.964Z,11.70
2022-12-18T18:49:38.111Z,12.80
2022-12-18T18:52:07.304Z,12.60
2022-12-18T18:54:35.586Z,12.90
2022-12-18T18:57:20.500Z,11.40
2022-12-18T18:59:49.850Z,12.10
2022-12-18T19:02:18.402Z,11.60
2022-12-18T19:04:47.216Z,11.70
2022-12-18T19:07:26.142Z,13.80
2022-12-18T19:10:04.432Z,11.40
2022-12-18T19:12:53.734Z,12.20
2022-12-18T19:15:23.453Z,11.60
2022-12-18T19:17:51.746Z,13.20
2022-12-18T19:20:20.175Z,12.10
2022-12-18T19:22:55.169Z,12.20
2022-12-18T19:25:38.065Z,13.90
2022-12-18T19:28:18.975Z,14.80
2022-12-18T19:30:58.779Z,17.20
2022-12-18T19:33:42.885Z,14.60
2022-12-18T19:36:16.203Z,14.30
2022-12-18T19:38:45.255Z,14.30
2022-12-18T19:41:14.828Z,15.20
2022-12-18T19:43:44.063Z,15.00
2022-12-18T19:46:16.231Z,15.00
2022-12-18T19:48:45.295Z,15.80
2022-12-18T19:51:26.255Z,16.50
2022-12-18T19:53:59.310Z,14.70
2022-12-18T19:56:33.398Z,17.50
2022-12-18T19:59:04.397Z,15.60
2022-12-18T20:01:32.980Z,16.50
2022-12-18T20:04:01.792Z,16.20
2022-12-18T20:06:52.366Z,14.70
2022-12-18T20:09:22.038Z,16.00
2022-12-18T20:11:50.832Z,15.70
2022-12-18T20:14:23.053Z,15.20
2022-12-18T20:16:53.067Z,15.00
2022-12-18T20:19:22.317Z,15.90
2022-12-18T20:21:51.143Z,15.90
2022-12-18T20:24:19.316Z,16.60
2022-12-18T20:26:47.552Z,15.80
2022-12-18T20:29:15.763Z,16.60
2022-12-18T20:31:44.203Z,15.30
2022-12-18T20:34:12.423Z,15.80
2022-12-18T20:36:41.115Z,13.50
2022-12-18T20:39:12.222Z,15.40
2022-12-18T20:41:41.651Z,16.00
2022-12-18T20:44:22.455Z,14.90
2022-12-18T20:46:57.561Z,15.00
2022-12-18T20:49:27.005Z,15.80
2022-12-18T20:51:57.695Z,14.50
2022-12-18T20:54:27.488Z,15.40
2022-12-18T20:56:56.738Z,15.60
2022-12-18T20:59:26.011Z,15.00
2022-12-18T21:01:54.978Z,14.40
2022-12-18T21:04:24.224Z,14.30
2022-12-18T21:07:01.924Z,15.20
2022-12-18T21:09:37.269Z,14.70
2022-12-18T21:12:35.016Z,13.70
2022-12-18T21:15:13.739Z,14.70
2022-12-18T21:17:44.500Z,15.10
2022-12-18T21:20:18.086Z,14.80
2022-12-18T21:22:49.168Z,15.40
2022-12-18T21:25:17.690Z,15.90
2022-12-18T21:27:45.862Z,15.20
2022-12-18T21:30:15.158Z,15.80
2022-12-18T21:32:43.519Z,14.70
2022-12-18T21:35:11.922Z,16.50
2022-12-18T21:37:40.301Z,16.10
2022-12-18T21:40:09.735Z,15.70
2022-12-18T21:42:56.423Z,16.60
2022-12-18T21:45:24.689Z,15.70
2022-12-18T21:47:52.802Z,16.10
2022-12-18T21:50:20.927Z,16.30
2022-12-18T21:52:49.032Z,16.10
2022-12-18T21:55:17.386Z,17.00
2022-12-18T21:57:45.555Z,16.20
2022-12-18T22:00:19.018Z,16.00
2022-12-18T22:03:03.729Z,16.10
2022-12-18T22:05:37.569Z,16.50
2022-12-18T22:08:07.068Z,16.40
2022-12-18T22:10:36.344Z,16.80
2022-12-18T22:13:06.330Z,16.90
2022-12-18T22:15:34.513Z,16.30
2022-12-18T22:18:02.735Z,16.60
2022-12-18T22:20:30.873Z,15.60
2022-12-18T22:23:01.071Z,16.00
2022-12-18T22:25:35.791Z,16.00
2022-12-18T22:28:26.476Z,15.60
2022-12-18T22:30:59.687Z,17.00
2022-12-18T22:33:28.595Z,17.20
2022-12-18T22:35:57.090Z,16.60
2022-12-18T22:38:25.879Z,17.80
2022-12-18T22:40:55.221Z,17.10
2022-12-18T22:43:23.454Z,16.90
2022-12-18T22:45:51.600Z,17.90
2022-12-18T22:48:20.107Z,17.10
2022-12-18T22:50:48.224Z,17.10
2022-12-18T22:53:18.098Z,17.60
2022-12-18T22:55:46.675Z,18.20
2022-12-18T22:58:14.706Z,17.00
2022-12-18T23:00:42.921Z,18.30
2022-12-18T23:03:11.174Z,18.00
2022-12-18T23:05:39.678Z,17.20
2022-12-18T23:08:07.852Z,17.60
2022-12-18T23:10:39.712Z,17.80
2022-12-18T23:13:07.836Z,19.00
2022-12-18T23:15:42.262Z,18.50
2022-12-18T23:18:10.691Z,17.70
2022-12-18T23:20:38.865Z,18.30
2022-12-18T23:23:08.267Z,18.20
2022-12-18T23:25:36.950Z,17.10
2022-12-18T23:28:06.482Z,16.00
2022-12-18T23:30:35.124Z,16.60
2022-12-18T23:33:03.380Z,15.70
2022-12-18T23:35:31.900Z,16.10
2022-12-18T23:38:00.509Z,14.90
2022-12-18T23:40:30.134Z,14.40
2022-12-18T23:43:00.346Z,15.40
2022-12-18T23:45:28.897Z,14.50
2022-12-18T23:47:57.175Z,14.80
2022-12-18T23:50:29.116Z,14.20
2022-12-18T23:53:05.118Z,14.00
2022-12-18T23:55:39.941Z,13.90
2022-12-18T23:58:20.900Z,13.50
